Details for Jet2 at EGPH




Go Back


Latest METAR
Local Time

EGPH 252220Z 07006KT CAVOK 11/09 Q1028

25/05/2018, 23:28:57

Description
Results
Jet2 Logo
Number of Pilots based at EGPH
0 Pilots Based here
Number of Jet2 Flights Departed from EGPH
1 Flights Departed
Number of Jet2 Flights Arrived at EGPH
0 Flights Arrived
Number of Jet2 Schedules Departing from EGPH
28 Schedules
Number of Jet2 Schedules Arriving at EGPH
28 Schedules
Number of Jet2 Schedules Departing from EGPH availible today
8 Schedules Today
Number of Jet2 Schedules Arriving at EGPH availible today
8 Schedules Today
Average Landing Rate at EGPH
-242 fpm
Jet2 Average Landing Rate at EGPH
0 fpm
Total Fuel Purchased at EGPH by Jet2
7,041.11 kgs / 15,522.83 lbs

Pilots Based at EGPH


Pilot ID
Pilot Name
Pilot Rank
No. of Flights
No. of Flying Hours
There are no pilots assigned to this hub!   Will you be the first?
Content